Time;durP1;ratioP1;P1;durP2;ratioP2;P2;SDS_P1;SDS_P2;PMS_P1;PMS_P2;Temp;Humidity;BMP_temperature;BMP_pressure;BME280_temperature;BME280_humidity;BME280_pressure;Samples;Min_cycle;Max_cycle;Signal;HPM_P1;HPM_P2
2021/08/23 00:00:07;;;;;;;4.35;2.85;;;;;;;13.71;77.66;95942.89;1821468;79;21006;-73
2021/08/23 00:02:36;;;;;;;5.05;3.92;;;;;;;13.63;77.94;95945.31;1820992;79;21030;-73
2021/08/23 00:05:04;;;;;;;4.40;3.60;;;;;;;13.62;77.81;95940.90;1821211;79;21014;-73
2021/08/23 00:07:30;;;;;;;4.00;3.10;;;;;;;13.60;78.46;95940.06;1821161;79;21496;-72
2021/08/23 00:09:57;;;;;;;3.92;3.52;;;;;;;13.56;78.46;95942.84;1821343;79;20978;-74
2021/08/23 00:12:26;;;;;;;4.67;3.20;;;;;;;13.55;78.39;95940.63;1821169;79;21515;-73
2021/08/23 00:14:54;;;;;;;4.65;4.10;;;;;;;13.59;78.43;95941.44;1821378;79;20994;-74
2021/08/23 00:17:20;;;;;;;3.98;3.47;;;;;;;13.58;77.91;95941.01;1821318;79;21476;-74
2021/08/23 00:19:47;;;;;;;3.80;3.25;;;;;;;13.64;77.34;95941.73;1821390;79;20962;-74
2021/08/23 00:22:29;;;;;;;6.05;3.52;;;;;;;13.61;77.55;95943.61;1821402;79;20967;-73
2021/08/23 00:24:42;;;;;;;6.12;3.80;;;;;;;13.66;77.29;95944.36;1815179;79;21034;-73
2021/08/23 00:27:08;;;;;;;6.47;3.47;;;;;;;13.63;77.31;95941.33;1821090;79;21002;-73
2021/08/23 00:29:34;;;;;;;4.83;3.40;;;;;;;13.63;77.04;95939.11;1821295;79;20997;-74
2021/08/23 00:32:01;;;;;;;4.37;3.40;;;;;;;13.58;77.45;95932.63;1820916;79;20979;-74
2021/08/23 00:34:28;;;;;;;3.85;3.45;;;;;;;13.59;77.62;95938.33;1821161;79;21504;-73
2021/08/23 00:36:54;;;;;;;4.45;3.33;;;;;;;13.57;77.79;95933.52;1821328;79;20994;-73
2021/08/23 00:39:20;;;;;;;4.37;3.22;;;;;;;13.61;77.69;95930.35;1821175;79;20991;-74
2021/08/23 00:41:47;;;;;;;6.22;3.10;;;;;;;13.71;78.02;95920.35;1821253;79;20983;-74
2021/08/23 00:44:13;;;;;;;4.58;3.70;;;;;;;13.70;77.83;95919.48;1821375;79;21495;-74
2021/08/23 00:46:40;;;;;;;6.65;3.45;;;;;;;13.59;77.71;95923.75;1821174;78;21567;-74
2021/08/23 00:49:07;;;;;;;28.55;6.97;;;;;;;13.53;77.23;95922.59;1821398;79;21002;-74
2021/08/23 00:51:34;;;;;;;10.88;3.08;;;;;;;13.53;77.93;95917.72;1820931;79;21010;-73
2021/08/23 00:54:00;;;;;;;5.55;3.22;;;;;;;13.48;77.71;95914.31;1821369;79;21033;-74
2021/08/23 00:56:27;;;;;;;4.47;3.08;;;;;;;13.46;77.72;95913.05;1821275;79;21006;-72
2021/08/23 00:58:54;;;;;;;3.98;3.20;;;;;;;13.48;77.93;95911.66;1821326;79;21009;-74
2021/08/23 01:01:29;;;;;;;4.42;3.58;;;;;;;13.51;77.43;95909.82;1820968;79;21022;-74
2021/08/23 01:04:16;;;;;;;3.80;3.40;;;;;;;13.54;77.28;95907.09;1821343;79;20995;-73
2021/08/23 01:06:44;;;;;;;4.83;3.40;;;;;;;13.48;77.63;95903.28;1819762;79;21531;-74
2021/08/23 01:09:14;;;;;;;4.40;3.25;;;;;;;13.45;77.66;95902.00;1820996;79;20990;-73
2021/08/23 01:11:51;;;;;;;4.22;3.40;;;;;;;13.39;78.01;95900.84;1821303;79;21531;-73
2021/08/23 01:14:20;;;;;;;4.12;3.52;;;;;;;13.35;77.41;95896.52;1821210;79;20994;-74
2021/08/23 01:16:46;;;;;;;4.33;3.27;;;;;;;13.36;77.28;95897.81;1821193;79;21038;-74
2021/08/23 01:19:15;;;;;;;3.70;3.30;;;;;;;13.32;78.36;95897.92;1821148;79;20987;-73
2021/08/23 01:21:43;;;;;;;4.95;3.35;;;;;;;13.32;78.20;95900.11;1820819;79;20979;-73
2021/08/23 01:24:11;;;;;;;5.37;3.65;;;;;;;13.30;78.09;95890.00;1821080;79;21019;-73
2021/08/23 01:26:42;;;;;;;5.10;3.50;;;;;;;13.30;78.20;95897.08;1820802;79;21041;-74
2021/08/23 01:29:29;;;;;;;3.60;3.17;;;;;;;13.24;78.09;95891.91;1820103;79;21520;-73
2021/08/23 01:32:18;;;;;;;4.20;3.17;;;;;;;13.14;78.72;95891.26;1821397;79;20982;-73
2021/08/23 01:34:46;;;;;;;3.83;3.02;;;;;;;13.10;78.76;95890.47;1821188;79;21503;-74
2021/08/23 01:37:15;;;;;;;4.35;3.20;;;;;;;13.08;78.82;95892.71;1821056;79;21014;-73
2021/08/23 01:39:43;;;;;;;3.75;3.25;;;;;;;13.06;79.23;95901.17;1820997;79;21081;-73
2021/08/23 01:42:10;;;;;;;5.10;3.40;;;;;;;12.99;79.00;95897.33;1821162;79;21476;-74
2021/08/23 01:44:37;;;;;;;3.58;3.27;;;;;;;12.90;78.72;95896.23;1821043;79;21025;-73
2021/08/23 01:47:04;;;;;;;3.65;3.10;;;;;;;12.91;78.69;95895.77;1823906;78;21125;-74
2021/08/23 01:49:30;;;;;;;3.30;2.90;;;;;;;12.93;78.93;95892.64;1826326;78;20990;-73
2021/08/23 01:51:57;;;;;;;3.42;3.12;;;;;;;12.98;78.76;95888.97;1825943;78;21512;-73
2021/08/23 01:54:23;;;;;;;3.98;3.52;;;;;;;13.09;78.51;95883.88;1825869;78;20978;-73
2021/08/23 01:56:50;;;;;;;4.30;3.30;;;;;;;13.04;78.41;95880.47;1825958;78;20954;-74
2021/08/23 01:59:17;;;;;;;4.28;3.65;;;;;;;13.02;79.12;95878.30;1826391;78;20982;-73
2021/08/23 02:01:43;;;;;;;4.43;3.10;;;;;;;13.07;78.93;95879.06;1826147;78;21519;-73
2021/08/23 02:04:10;;;;;;;3.47;3.17;;;;;;;13.06;78.74;95879.98;1826027;78;20985;-73
2021/08/23 02:06:36;;;;;;;6.72;3.83;;;;;;;13.04;78.48;95882.66;1826266;78;21007;-73
2021/08/23 02:09:03;;;;;;;6.28;3.35;;;;;;;13.02;78.34;95889.77;1826028;78;21010;-74
2021/08/23 02:11:30;;;;;;;6.00;3.10;;;;;;;12.92;79.19;95885.58;1825959;78;20958;-74
2021/08/23 02:13:56;;;;;;;4.03;3.42;;;;;;;12.92;79.23;95882.48;1826147;78;21081;-74
2021/08/23 02:16:23;;;;;;;28.40;5.10;;;;;;;13.02;79.21;95880.48;1826041;78;21014;-72
2021/08/23 02:18:49;;;;;;;16.63;3.70;;;;;;;13.08;78.69;95876.39;1826202;78;20990;-71
2021/08/23 02:21:19;;;;;;;4.95;3.52;;;;;;;13.01;78.58;95872.14;1826034;78;21010;-71
2021/08/23 02:23:44;;;;;;;6.43;3.50;;;;;;;12.94;78.33;95866.56;1826240;78;20982;-71
2021/08/23 02:26:10;;;;;;;3.95;2.85;;;;;;;12.85;78.57;95866.34;1825500;79;21090;-71
2021/08/23 02:28:37;;;;;;;7.03;3.22;;;;;;;12.87;78.69;95869.80;1826295;78;21011;-70
2021/08/23 02:31:04;;;;;;;4.62;3.35;;;;;;;12.78;78.39;95860.30;1826154;78;21487;-70
2021/08/23 02:33:31;;;;;;;5.27;3.50;;;;;;;12.73;78.71;95863.50;1825805;78;21089;-69
2021/08/23 02:35:58;;;;;;;5.87;3.60;;;;;;;12.77;79.59;95861.22;1826416;78;20977;-69
2021/08/23 02:38:24;;;;;;;5.25;3.83;;;;;;;12.83;79.18;95862.84;1794390;78;20986;-70
2021/08/23 02:40:50;;;;;;;4.40;3.80;;;;;;;12.80;78.73;95864.25;1826078;78;21021;-70
2021/08/23 02:43:17;;;;;;;3.98;3.15;;;;;;;12.80;78.45;95866.89;1826150;78;21050;-70
2021/08/23 02:45:43;;;;;;;3.70;2.75;;;;;;;12.72;78.99;95863.07;1826348;78;21518;-71
2021/08/23 02:48:10;;;;;;;4.43;3.03;;;;;;;12.63;79.38;95865.95;1820973;78;21075;-72
2021/08/23 02:50:37;;;;;;;3.57;2.93;;;;;;;12.54;78.62;95860.84;1821515;79;20983;-72
2021/08/23 02:53:04;;;;;;;3.87;2.93;;;;;;;12.58;78.80;95865.63;1820772;79;21034;-71
2021/08/23 02:55:30;;;;;;;3.13;2.80;;;;;;;12.52;79.39;95858.25;1821298;79;21018;-71
2021/08/23 02:57:57;;;;;;;3.87;2.97;;;;;;;12.48;78.46;95860.53;1821618;79;20963;-71
2021/08/23 03:00:23;;;;;;;3.57;2.90;;;;;;;12.49;78.51;95846.84;1821190;79;21025;-71
2021/08/23 03:02:50;;;;;;;4.58;3.20;;;;;;;12.50;78.76;95851.25;1821292;79;21006;-72
2021/08/23 03:05:17;;;;;;;4.23;3.20;;;;;;;12.47;79.00;95859.23;1821408;79;21467;-73
2021/08/23 03:07:43;;;;;;;3.77;3.47;;;;;;;12.46;78.93;95851.75;1821290;79;20967;-73
2021/08/23 03:10:10;;;;;;;3.73;3.00;;;;;;;12.43;79.16;95853.61;1821255;79;21461;-73
2021/08/23 03:12:37;;;;;;;3.47;2.87;;;;;;;12.38;79.71;95862.09;1821244;79;21015;-73
2021/08/23 03:15:04;;;;;;;4.43;3.10;;;;;;;12.32;79.96;95861.33;1821312;79;21010;-73
2021/08/23 03:17:31;;;;;;;5.03;2.97;;;;;;;12.28;80.06;95860.95;1821357;79;20987;-73
2021/08/23 03:19:57;;;;;;;2.73;2.53;;;;;;;12.20;79.70;95859.39;1821381;79;20997;-73
2021/08/23 03:22:23;;;;;;;6.73;3.20;;;;;;;12.21;79.44;95856.69;1821370;79;21010;-72
2021/08/23 03:24:50;;;;;;;3.37;2.63;;;;;;;12.25;79.53;95858.38;1821219;79;21448;-73
2021/08/23 03:27:16;;;;;;;10.33;4.90;;;;;;;12.31;79.62;95861.34;1821649;79;20971;-73
2021/08/23 03:29:43;;;;;;;6.73;3.70;;;;;;;12.32;79.43;95863.07;1820975;79;21029;-73
2021/08/23 03:32:09;;;;;;;3.87;2.90;;;;;;;12.38;79.08;95868.71;1821564;79;21007;-73
2021/08/23 03:34:35;;;;;;;6.07;3.87;;;;;;;12.29;78.86;95860.50;1821315;79;21003;-73
2021/08/23 03:37:02;;;;;;;13.57;6.47;;;;;;;12.18;79.14;95859.41;1820647;79;21391;-73
2021/08/23 03:39:29;;;;;;;9.87;5.53;;;;;;;12.19;79.45;95858.95;1821102;79;21062;-74
2021/08/23 03:41:55;;;;;;;8.80;4.87;;;;;;;12.25;79.52;95861.03;1821357;79;21416;-73
2021/08/23 03:44:22;;;;;;;14.03;5.50;;;;;;;12.27;79.28;95860.55;1820924;79;21018;-73
2021/08/23 03:46:48;;;;;;;6.00;4.30;;;;;;;12.32;79.08;95860.00;1824190;78;21036;-73
2021/08/23 03:49:15;;;;;;;21.83;11.67;;;;;;;12.24;79.06;95861.91;1831886;78;21460;-73
2021/08/23 03:51:41;;;;;;;38.10;18.97;;;;;;;12.20;79.76;95860.25;1832023;78;21061;-73
2021/08/23 03:54:08;;;;;;;30.50;13.67;;;;;;;12.29;79.92;95861.82;1831869;78;21034;-73
2021/08/23 03:56:35;;;;;;;24.83;11.20;;;;;;;12.25;79.67;95865.00;1796610;78;21045;-73
2021/08/23 03:59:01;;;;;;;8.80;4.20;;;;;;;12.38;79.80;95862.96;1832081;78;21436;-73
2021/08/23 04:01:28;;;;;;;5.57;2.93;;;;;;;12.38;79.07;95862.96;1831711;78;21053;-73
2021/08/23 04:03:54;;;;;;;4.57;2.70;;;;;;;12.29;79.18;95867.11;1832187;78;20978;-73
2021/08/23 04:06:20;;;;;;;4.17;3.03;;;;;;;12.18;79.80;95862.05;1832047;78;20998;-72
2021/08/23 04:08:47;;;;;;;3.57;2.70;;;;;;;12.13;80.17;95861.28;1831882;78;21105;-73
2021/08/23 04:11:14;;;;;;;3.47;2.70;;;;;;;12.15;79.87;95861.26;1831432;78;20986;-73
2021/08/23 04:13:42;;;;;;;3.63;2.70;;;;;;;12.22;79.75;95860.20;1832107;78;21061;-73
2021/08/23 04:16:14;;;;;;;2.77;2.23;;;;;;;12.25;79.44;95858.84;1831721;78;21086;-73
2021/08/23 04:18:41;;;;;;;5.87;2.80;;;;;;;12.24;79.45;95859.72;1831779;78;20956;-73
2021/08/23 04:21:08;;;;;;;8.20;4.10;;;;;;;12.17;80.01;95859.00;1831687;78;21054;-73
2021/08/23 04:23:34;;;;;;;6.53;3.90;;;;;;;12.16;80.23;95857.70;1831970;78;21475;-73
2021/08/23 04:26:02;;;;;;;12.33;4.10;;;;;;;12.19;79.99;95857.63;1831454;78;21077;-73
2021/08/23 04:28:28;;;;;;;6.43;4.10;;;;;;;12.29;80.46;95867.11;1832064;78;21029;-73
2021/08/23 04:30:55;;;;;;;4.17;3.10;;;;;;;12.40;80.43;95859.84;1829385;78;21049;-73
2021/08/23 04:33:22;;;;;;;7.87;4.67;;;;;;;12.55;80.42;95859.50;1832104;78;20990;-73
2021/08/23 04:35:48;;;;;;;7.77;4.17;;;;;;;12.73;79.95;95857.34;1829304;78;21531;-73
2021/08/23 04:38:15;;;;;;;6.20;3.60;;;;;;;12.89;79.46;95855.20;1832127;78;20970;-73
2021/08/23 04:40:42;;;;;;;5.80;3.60;;;;;;;13.04;79.07;95858.81;1831960;78;21053;-73
2021/08/23 04:43:08;;;;;;;4.50;3.65;;;;;;;13.10;78.56;95856.46;1832021;78;21013;-73
2021/08/23 04:45:35;;;;;;;5.62;3.20;;;;;;;13.17;78.32;95850.98;1831564;78;21130;-73
2021/08/23 04:48:01;;;;;;;5.37;3.52;;;;;;;13.25;78.29;95844.63;1828070;78;21018;-73
2021/08/23 04:50:28;;;;;;;5.72;4.08;;;;;;;13.30;77.71;95846.27;1826149;78;20990;-73
2021/08/23 04:52:54;;;;;;;6.30;2.50;;;;;;;13.45;77.64;95838.39;1826170;78;21010;-73
2021/08/23 04:55:21;;;;;;;5.58;2.65;;;;;;;13.51;77.53;95839.57;1826039;78;20990;-71
2021/08/23 04:57:47;;;;;;;5.30;2.98;;;;;;;13.49;77.62;95834.76;1826124;78;21021;-74
2021/08/23 05:00:14;;;;;;;8.23;3.80;;;;;;;13.55;78.16;95839.02;1825638;78;21061;-73
2021/08/23 05:02:41;;;;;;;51.98;6.25;;;;;;;13.67;78.59;95838.70;1826288;78;21420;-73
2021/08/23 05:05:08;;;;;;;8.70;4.00;;;;;;;13.81;78.37;95827.27;1825852;78;21013;-73
2021/08/23 05:07:35;;;;;;;5.83;3.50;;;;;;;13.99;78.30;95832.98;1825996;78;20942;-73
2021/08/23 05:10:02;;;;;;;6.58;3.83;;;;;;;14.10;77.40;95822.05;1825703;78;21480;-69
2021/08/23 05:12:28;;;;;;;5.00;3.60;;;;;;;14.23;76.95;95822.97;1825963;78;20974;-74
2021/08/23 05:14:55;;;;;;;4.35;3.42;;;;;;;14.33;75.51;95825.36;1826054;78;21471;-74
2021/08/23 05:17:21;;;;;;;4.10;3.58;;;;;;;14.39;75.78;95825.16;1826119;78;21428;-74
2021/08/23 05:19:48;;;;;;;4.35;3.35;;;;;;;14.51;75.69;95827.45;1825835;78;21052;-74
2021/08/23 05:22:14;;;;;;;4.17;3.50;;;;;;;14.58;75.75;95826.86;1825567;78;21014;-74
2021/08/23 05:24:41;;;;;;;5.72;4.40;;;;;;;14.67;74.89;95828.78;1826215;78;21484;-74
2021/08/23 05:27:07;;;;;;;4.30;3.30;;;;;;;14.81;74.89;95826.14;1825908;78;20931;-74
2021/08/23 05:29:34;;;;;;;317.73;17.95;;;;;;;14.94;74.60;95826.16;1825787;78;21086;-74
2021/08/23 05:32:00;;;;;;;17.07;4.72;;;;;;;15.04;73.81;95821.41;1826340;78;21054;-74
2021/08/23 05:34:27;;;;;;;10.03;4.03;;;;;;;15.17;74.09;95821.45;1825930;78;21034;-74
2021/08/23 05:36:53;;;;;;;4.60;3.75;;;;;;;15.33;74.09;95831.97;1826262;78;21036;-74
2021/08/23 05:39:20;;;;;;;5.25;4.12;;;;;;;15.47;73.64;95822.64;1826069;78;21074;-74
2021/08/23 05:41:47;;;;;;;4.58;3.20;;;;;;;15.62;73.99;95823.91;1825998;78;20946;-74
2021/08/23 05:44:13;;;;;;;4.37;3.70;;;;;;;15.68;71.56;95820.59;1826238;78;21006;-74
2021/08/23 05:46:40;;;;;;;31.75;5.35;;;;;;;15.86;72.21;95822.23;1826289;78;20969;-74
2021/08/23 05:49:06;;;;;;;4.00;3.47;;;;;;;16.03;72.61;95825.16;1826213;78;21062;-74
2021/08/23 05:51:33;;;;;;;5.40;3.25;;;;;;;16.20;71.66;95828.07;1825825;78;21094;-74
2021/08/23 05:53:59;;;;;;;4.40;3.47;;;;;;;16.37;70.72;95823.89;1826067;78;21034;-74
2021/08/23 05:56:26;;;;;;;4.92;3.15;;;;;;;16.55;70.54;95824.98;1825725;79;20954;-74
2021/08/23 05:58:52;;;;;;;3.98;3.30;;;;;;;16.71;68.85;95813.30;1826261;78;21052;-74
2021/08/23 06:01:19;;;;;;;3.50;3.20;;;;;;;16.87;69.25;95805.11;1826050;78;21472;-70
2021/08/23 06:03:45;;;;;;;4.65;3.05;;;;;;;17.08;69.00;95803.38;1825591;79;21018;-72
2021/08/23 06:06:13;;;;;;;3.33;3.02;;;;;;;17.30;69.21;95806.89;1826165;78;21002;-73
2021/08/23 06:08:41;;;;;;;6.25;3.35;;;;;;;17.51;69.07;95806.48;1826261;78;20990;-73
2021/08/23 06:11:07;;;;;;;5.08;3.00;;;;;;;17.73;68.30;95801.53;1825844;78;21034;-74
2021/08/23 06:13:34;;;;;;;4.42;3.00;;;;;;;17.95;68.08;95802.36;1825800;78;21033;-74
2021/08/23 06:16:00;;;;;;;6.15;3.08;;;;;;;18.15;67.92;95800.62;1826302;78;21006;-74
2021/08/23 06:18:26;;;;;;;4.72;3.25;;;;;;;18.35;67.13;95802.38;1826295;78;20990;-74
2021/08/23 06:20:53;;;;;;;5.78;3.60;;;;;;;18.54;66.78;95803.72;1826320;78;21011;-74
2021/08/23 06:23:20;;;;;;;4.05;2.83;;;;;;;18.83;62.22;95802.39;1826446;78;21486;-74
2021/08/23 06:25:46;;;;;;;10.03;3.60;;;;;;;18.83;62.22;95802.39;1821240;78;20970;-74
2021/08/23 06:28:13;;;;;;;3.92;3.10;;;;;;;18.97;62.93;95789.67;1826212;78;21101;-74
2021/08/23 06:30:39;;;;;;;10.30;3.05;;;;;;;19.08;61.45;95790.52;1825839;78;21018;-75
2021/08/23 06:33:06;;;;;;;5.75;3.70;;;;;;;19.21;62.47;95797.84;1826190;78;21089;-73
2021/08/23 06:35:33;;;;;;;15.65;3.37;;;;;;;19.36;62.25;95793.55;1826228;78;21018;-74
2021/08/23 06:38:00;;;;;;;8.43;3.20;;;;;;;19.52;62.06;95793.63;1825874;78;21010;-74
2021/08/23 06:40:26;;;;;;;7.12;3.30;;;;;;;19.67;61.46;95793.36;1826364;78;20935;-74
2021/08/23 06:42:53;;;;;;;16.85;4.08;;;;;;;19.79;58.29;95795.89;1826288;78;20990;-74
2021/08/23 06:45:19;;;;;;;6.75;3.30;;;;;;;19.96;59.81;95792.30;1825995;78;21057;-74
2021/08/23 06:47:46;;;;;;;17.20;3.92;;;;;;;20.13;59.04;95790.09;1793014;78;21078;-74
2021/08/23 06:50:13;;;;;;;15.00;3.35;;;;;;;20.28;59.29;95787.45;1826294;78;21002;-73
2021/08/23 06:52:40;;;;;;;13.22;3.80;;;;;;;20.46;58.48;95784.27;1826143;78;21041;-74
2021/08/23 06:55:08;;;;;;;9.55;3.33;;;;;;;20.60;57.66;95786.21;1826281;78;21002;-72
2021/08/23 06:57:34;;;;;;;14.70;3.62;;;;;;;20.74;57.95;95786.80;1826114;78;20963;-74
2021/08/23 07:00:01;;;;;;;8.33;3.40;;;;;;;20.88;54.00;95777.48;1825825;78;21017;-74
2021/08/23 07:02:27;;;;;;;10.48;3.30;;;;;;;21.05;56.33;95776.54;1826220;78;21118;-74
2021/08/23 07:04:54;;;;;;;14.03;3.65;;;;;;;21.24;56.54;95770.10;1826170;78;21002;-74
2021/08/23 07:07:20;;;;;;;11.73;3.12;;;;;;;21.43;56.14;95774.83;1826203;78;21009;-74
2021/08/23 07:09:48;;;;;;;12.13;3.40;;;;;;;21.61;56.09;95763.48;1826385;78;20991;-75
2021/08/23 07:12:14;;;;;;;9.55;4.10;;;;;;;21.80;56.11;95763.25;1826044;78;21033;-75
2021/08/23 07:14:41;;;;;;;4.35;3.42;;;;;;;21.98;55.68;95766.16;1826405;78;21006;-74
2021/08/23 07:17:09;;;;;;;5.75;3.10;;;;;;;22.16;53.95;95761.47;1826166;78;21045;-74
2021/08/23 07:19:35;;;;;;;4.92;3.05;;;;;;;22.31;53.41;95758.84;1825856;78;21116;-74
2021/08/23 07:22:03;;;;;;;3.70;3.00;;;;;;;22.42;52.30;95761.22;1826224;78;21042;-74
2021/08/23 07:24:29;;;;;;;5.42;3.08;;;;;;;22.57;53.09;95755.35;1826183;78;21026;-74
2021/08/23 07:26:56;;;;;;;3.45;2.87;;;;;;;22.77;52.97;95751.88;1825805;78;21543;-74
2021/08/23 07:29:24;;;;;;;3.47;3.12;;;;;;;22.89;50.89;95745.22;1826174;78;20986;-74
2021/08/23 07:31:51;;;;;;;6.30;3.30;;;;;;;22.98;48.65;95744.27;1826127;78;21022;-74
2021/08/23 07:34:17;;;;;;;4.75;3.05;;;;;;;23.09;49.57;95742.60;1826016;78;21053;-74
2021/08/23 07:36:44;;;;;;;4.85;3.20;;;;;;;23.22;49.91;95744.48;1826517;78;20971;-74
2021/08/23 07:39:10;;;;;;;5.15;3.20;;;;;;;23.32;48.99;95741.08;1826027;78;21086;-74
2021/08/23 07:41:36;;;;;;;4.55;3.70;;;;;;;23.42;48.85;95741.33;1826062;78;21448;-74
2021/08/23 07:44:03;;;;;;;8.90;3.47;;;;;;;23.59;48.53;95748.28;1826267;78;21014;-74
2021/08/23 07:46:29;;;;;;;4.47;3.62;;;;;;;23.78;49.87;95744.34;1826159;78;21070;-74
2021/08/23 07:48:56;;;;;;;4.83;3.60;;;;;;;23.94;50.34;95743.69;1825573;78;20983;-74
2021/08/23 07:51:23;;;;;;;18.00;4.20;;;;;;;24.10;49.17;95746.17;1826285;78;21002;-74
2021/08/23 07:53:49;;;;;;;40.98;8.65;;;;;;;24.23;49.21;95738.08;1826184;78;21070;-74
2021/08/23 07:56:15;;;;;;;4.53;3.58;;;;;;;24.39;49.50;95740.05;1826029;78;21499;-74
2021/08/23 07:58:42;;;;;;;4.42;3.62;;;;;;;24.55;48.65;95743.43;1826134;78;21014;-73
2021/08/23 08:01:09;;;;;;;19.45;4.20;;;;;;;24.63;48.35;95745.58;1826287;78;20986;-74
2021/08/23 08:03:35;;;;;;;5.80;4.20;;;;;;;24.77;47.52;95736.47;1826229;78;21002;-74
2021/08/23 08:06:02;;;;;;;7.12;4.37;;;;;;;24.81;48.01;95733.93;1825913;78;21005;-74
2021/08/23 08:08:28;;;;;;;5.25;4.15;;;;;;;24.90;48.25;95730.57;1825905;78;21058;-74
2021/08/23 08:10:57;;;;;;;4.42;3.87;;;;;;;25.10;48.71;95726.86;1826072;78;20974;-74
2021/08/23 08:13:25;;;;;;;6.08;4.37;;;;;;;25.31;48.98;95723.95;1826066;78;21506;-74
2021/08/23 08:15:52;;;;;;;5.00;4.50;;;;;;;25.50;48.38;95730.16;1826064;78;21025;-74
2021/08/23 08:18:19;;;;;;;5.35;4.87;;;;;;;25.60;47.71;95722.23;1825843;78;21077;-74
2021/08/23 08:20:46;;;;;;;640.08;32.05;;;;;;;25.60;47.06;95728.52;1826204;78;21452;-74
2021/08/23 08:23:12;;;;;;;7.47;4.15;;;;;;;25.69;47.77;95735.05;1825768;78;21313;-74
2021/08/23 08:25:39;;;;;;;9.70;5.40;;;;;;;25.86;47.83;95729.73;1826453;78;21002;-74
2021/08/23 08:28:06;;;;;;;6.78;4.97;;;;;;;25.90;46.28;95731.20;1826159;78;21475;-73
2021/08/23 08:30:33;;;;;;;7.50;4.30;;;;;;;25.98;46.91;95730.61;1825710;78;21002;-74
2021/08/23 08:32:59;;;;;;;7.78;4.15;;;;;;;26.14;46.76;95732.50;1826099;78;21148;-74
2021/08/23 08:35:26;;;;;;;8.30;4.58;;;;;;;26.36;46.63;95728.97;1825974;78;21053;-74
2021/08/23 08:37:52;;;;;;;5.12;4.62;;;;;;;26.57;45.24;95726.92;1826414;78;21021;-74
2021/08/23 08:40:19;;;;;;;7.75;4.83;;;;;;;26.74;45.33;95736.75;1825852;78;21122;-74
2021/08/23 08:42:47;;;;;;;7.42;4.67;;;;;;;26.97;45.74;95725.90;1826251;78;20973;-74
2021/08/23 08:45:14;;;;;;;9.25;5.47;;;;;;;27.22;43.67;95730.19;1825846;78;21002;-73
2021/08/23 08:47:42;;;;;;;13.35;6.35;;;;;;;27.44;43.76;95727.88;1826145;78;21436;-72
2021/08/23 08:50:14;;;;;;;6.97;4.53;;;;;;;27.72;43.29;95728.27;1826142;78;21010;-73
2021/08/23 08:52:46;;;;;;;13.95;6.28;;;;;;;27.88;40.80;95721.09;1824701;78;21022;-73
2021/08/23 08:55:14;;;;;;;5.08;4.55;;;;;;;27.92;41.27;95726.13;1826261;78;21013;-73
2021/08/23 08:57:41;;;;;;;6.20;4.80;;;;;;;28.13;40.93;95722.56;1825979;78;21070;-73
2021/08/23 09:00:09;;;;;;;35.80;6.85;;;;;;;28.15;40.98;95724.61;1825739;78;20990;-73
2021/08/23 09:02:37;;;;;;;6.17;4.28;;;;;;;27.99;39.92;95725.94;1826134;78;21452;-73
2021/08/23 09:05:16;;;;;;;4.90;4.50;;;;;;;27.78;40.32;95724.55;1825713;78;21019;-73
2021/08/23 09:07:49;;;;;;;4.47;4.08;;;;;;;27.57;40.44;95729.10;1826239;78;21467;-73
2021/08/23 09:10:23;;;;;;;5.75;4.50;;;;;;;27.37;40.32;95723.49;1826205;78;21002;-73
2021/08/23 09:13:04;;;;;;;14.05;4.53;;;;;;;27.31;41.08;95721.28;1825619;78;21464;-73
2021/08/23 09:15:33;;;;;;;8.65;4.40;;;;;;;27.26;40.30;95725.37;1826186;78;21464;-71
2021/08/23 09:18:08;;;;;;;4.97;4.58;;;;;;;27.15;40.55;95720.31;1826222;78;21441;-73
2021/08/23 09:20:37;;;;;;;7.30;4.37;;;;;;;27.12;41.28;95727.34;1825858;78;21010;-73
2021/08/23 09:23:14;;;;;;;4.67;4.28;;;;;;;27.18;41.02;95720.09;1826231;78;21044;-74
2021/08/23 09:25:44;;;;;;;7.75;4.60;;;;;;;27.41;41.11;95721.38;1826099;78;21504;-73
2021/08/23 09:28:10;;;;;;;6.95;4.08;;;;;;;27.80;40.45;95718.52;1826024;78;20986;-73
2021/08/23 09:30:38;;;;;;;4.40;4.00;;;;;;;28.25;39.72;95722.85;1826190;78;21532;-73
2021/08/23 09:33:06;;;;;;;6.03;4.40;;;;;;;28.48;38.19;95717.64;1825790;78;21101;-73
2021/08/23 09:35:36;;;;;;;4.75;4.20;;;;;;;28.30;37.76;95717.00;1825827;78;21043;-73
2021/08/23 09:38:10;;;;;;;4.87;4.12;;;;;;;28.33;39.12;95718.96;1826236;78;21045;-73
2021/08/23 09:40:38;;;;;;;4.47;4.08;;;;;;;28.78;38.20;95709.13;1825263;78;21083;-73
2021/08/23 09:43:13;;;;;;;4.60;3.98;;;;;;;29.18;37.69;95706.04;1826193;78;20994;-73
2021/08/23 09:45:48;;;;;;;4.70;4.20;;;;;;;29.20;37.42;95710.84;1826294;78;21025;-72
2021/08/23 09:48:16;;;;;;;4.20;3.72;;;;;;;28.94;36.19;95710.47;1826614;78;20974;-73
2021/08/23 09:50:47;;;;;;;4.62;4.05;;;;;;;29.18;36.48;95702.85;1831832;78;21072;-74
2021/08/23 09:53:20;;;;;;;5.78;4.40;;;;;;;29.60;35.08;95697.66;1832052;78;21045;-73
2021/08/23 09:55:50;;;;;;;4.33;3.92;;;;;;;29.84;35.53;95695.40;1831676;78;21042;-73
2021/08/23 09:58:17;;;;;;;5.25;4.37;;;;;;;30.00;34.01;95693.44;1831856;78;21002;-74
2021/08/23 10:00:45;;;;;;;5.03;4.00;;;;;;;29.54;34.36;95703.17;1832135;78;21022;-73
2021/08/23 10:03:19;;;;;;;7.72;4.10;;;;;;;29.40;35.51;95696.28;1831540;78;21078;-73
2021/08/23 10:05:48;;;;;;;6.50;4.35;;;;;;;29.62;36.06;95697.88;1831401;78;21479;-73
2021/08/23 10:08:24;;;;;;;5.42;4.10;;;;;;;30.07;35.41;95697.30;1832057;78;21909;-74
2021/08/23 10:10:52;;;;;;;6.12;3.98;;;;;;;30.27;33.60;95687.78;1832076;78;20959;-73
2021/08/23 10:13:20;;;;;;;6.30;3.72;;;;;;;29.99;33.62;95698.53;1831763;78;21029;-73
2021/08/23 10:15:46;;;;;;;6.42;3.90;;;;;;;29.74;35.29;95700.84;1831892;78;21459;-73
2021/08/23 10:18:16;;;;;;;12.00;4.37;;;;;;;30.00;35.41;95696.16;1831783;78;21085;-73
2021/08/23 10:20:44;;;;;;;11.80;4.40;;;;;;;29.74;34.36;95695.91;1831258;78;21022;-73
2021/08/23 10:23:14;;;;;;;8.53;4.40;;;;;;;29.74;34.23;95691.33;1831957;78;20986;-72
2021/08/23 10:25:40;;;;;;;8.28;3.90;;;;;;;30.10;33.47;95687.48;1832229;78;21085;-73
2021/08/23 10:28:12;;;;;;;8.70;4.50;;;;;;;30.09;33.04;95693.94;1831895;78;21041;-73
2021/08/23 10:30:40;;;;;;;7.53;4.10;;;;;;;29.90;34.01;95689.88;1831933;78;20962;-73
2021/08/23 10:33:17;;;;;;;6.12;4.50;;;;;;;29.66;35.07;95688.47;1832046;78;20990;-73
2021/08/23 10:35:53;;;;;;;5.67;3.80;;;;;;;29.81;35.47;95692.09;1832066;78;21047;-74
2021/08/23 10:38:25;;;;;;;5.90;4.40;;;;;;;29.88;34.21;95683.72;1831365;78;21527;-73
2021/08/23 10:41:14;;;;;;;13.20;4.70;;;;;;;30.00;34.32;95681.20;1832037;78;21005;-73
2021/08/23 10:43:48;;;;;;;11.80;4.45;;;;;;;30.13;34.18;95679.02;1831682;78;21081;-73
2021/08/23 10:46:27;;;;;;;9.93;4.72;;;;;;;29.98;33.26;95675.03;1832009;78;21563;-73
2021/08/23 10:48:58;;;;;;;442.05;21.07;;;;;;;29.91;34.41;95672.06;1830546;78;21049;-74
2021/08/23 10:51:41;;;;;;;11.25;4.75;;;;;;;29.96;34.34;95670.23;1826290;78;21010;-73
2021/08/23 10:54:30;;;;;;;8.38;4.10;;;;;;;30.11;33.32;95669.28;1826863;78;20994;-73
2021/08/23 10:57:05;;;;;;;8.00;4.40;;;;;;;30.29;32.70;95669.41;1826322;78;21478;-73
2021/08/23 10:59:41;;;;;;;6.33;4.65;;;;;;;30.43;32.03;95664.00;1826114;78;21073;-72
2021/08/23 11:02:32;;;;;;;12.98;4.37;;;;;;;30.58;32.67;95653.83;1826179;78;21010;-72
2021/08/23 11:05:07;;;;;;;6.08;4.58;;;;;;;31.01;32.90;95648.25;1825989;78;21075;-73
2021/08/23 11:07:36;;;;;;;8.60;4.60;;;;;;;30.97;32.30;95655.04;1826212;78;21912;-75
2021/08/23 11:10:19;;;;;;;13.55;4.55;;;;;;;30.62;31.64;95648.45;1826219;78;21393;-73
2021/08/23 11:12:49;;;;;;;9.73;4.72;;;;;;;30.43;31.94;95643.59;1825830;78;21049;-72
2021/08/23 11:15:20;;;;;;;11.48;5.20;;;;;;;30.20;32.55;95647.48;1826343;78;21033;-73
2021/08/23 11:17:51;;;;;;;162.57;11.63;;;;;;;29.92;33.58;95645.71;1826464;78;21049;-74
2021/08/23 11:20:22;;;;;;;41.40;6.22;;;;;;;29.58;32.87;95646.12;1826151;78;21150;-73
2021/08/23 11:23:00;;;;;;;8.63;4.62;;;;;;;29.73;34.67;95645.22;1826404;78;20978;-71
2021/08/23 11:25:30;;;;;;;9.08;4.28;;;;;;;30.27;32.64;95632.83;1826179;78;21030;-71
2021/08/23 11:28:04;;;;;;;5.83;4.47;;;;;;;30.57;31.09;95634.94;1826161;78;20979;-72
2021/08/23 11:30:47;;;;;;;14.38;4.37;;;;;;;30.78;31.43;95638.77;1826342;78;20990;-72
2021/08/23 11:33:31;;;;;;;9.43;4.47;;;;;;;30.77;30.55;95633.83;1825145;78;21022;-73
2021/08/23 11:36:02;;;;;;;14.50;5.67;;;;;;;30.57;30.03;95630.34;1826262;78;20946;-73